sensor_id;sensor_type;location;lat;lon;timestamp;temperature;humidity
52187;DHT22;38161;53.020;6.598;2023-08-08T00:01:34;13.30;99.90
52187;DHT22;38161;53.020;6.598;2023-08-08T00:04:01;13.30;99.90
52187;DHT22;38161;53.020;6.598;2023-08-08T00:06:27;13.30;99.90
52187;DHT22;38161;53.020;6.598;2023-08-08T00:08:53;13.30;99.90
52187;DHT22;38161;53.020;6.598;2023-08-08T00:11:18;13.30;99.90
52187;DHT22;38161;53.020;6.598;2023-08-08T00:13:45;13.30;99.90
52187;DHT22;38161;53.020;6.598;2023-08-08T00:16:11;13.30;99.90
52187;DHT22;38161;53.020;6.598;2023-08-08T00:18:37;13.30;99.90
52187;DHT22;38161;53.020;6.598;2023-08-08T00:21:03;13.30;99.90
52187;DHT22;38161;53.020;6.598;2023-08-08T00:23:29;13.30;99.90
52187;DHT22;38161;53.020;6.598;2023-08-08T00:25:55;13.30;99.90
52187;DHT22;38161;53.020;6.598;2023-08-08T00:28:20;13.40;99.90
52187;DHT22;38161;53.020;6.598;2023-08-08T00:30:46;13.40;99.90
52187;DHT22;38161;53.020;6.598;2023-08-08T00:33:12;13.40;99.90
52187;DHT22;38161;53.020;6.598;2023-08-08T00:35:38;13.40;99.90
52187;DHT22;38161;53.020;6.598;2023-08-08T00:38:03;13.40;99.90
52187;DHT22;38161;53.020;6.598;2023-08-08T00:40:29;13.40;99.90
52187;DHT22;38161;53.020;6.598;2023-08-08T00:42:55;13.40;99.90
52187;DHT22;38161;53.020;6.598;2023-08-08T00:45:21;13.40;99.90
52187;DHT22;38161;53.020;6.598;2023-08-08T00:47:47;13.40;99.90
52187;DHT22;38161;53.020;6.598;2023-08-08T00:50:13;13.50;99.90
52187;DHT22;38161;53.020;6.598;2023-08-08T00:52:40;13.40;99.90
52187;DHT22;38161;53.020;6.598;2023-08-08T00:55:07;13.40;99.90
52187;DHT22;38161;53.020;6.598;2023-08-08T00:57:33;13.40;99.90
52187;DHT22;38161;53.020;6.598;2023-08-08T01:00:00;13.40;99.90
52187;DHT22;38161;53.020;6.598;2023-08-08T01:02:27;13.40;99.90
52187;DHT22;38161;53.020;6.598;2023-08-08T01:04:52;13.40;99.90
52187;DHT22;38161;53.020;6.598;2023-08-08T01:07:47;13.40;99.90
52187;DHT22;38161;53.020;6.598;2023-08-08T01:10:29;13.50;99.90
52187;DHT22;38161;53.020;6.598;2023-08-08T01:12:59;13.50;99.90
52187;DHT22;38161;53.020;6.598;2023-08-08T01:15:26;13.50;99.90
52187;DHT22;38161;53.020;6.598;2023-08-08T01:17:54;13.50;99.90
52187;DHT22;38161;53.020;6.598;2023-08-08T01:20:20;13.50;99.90
52187;DHT22;38161;53.020;6.598;2023-08-08T01:25:38;13.50;99.90
52187;DHT22;38161;53.020;6.598;2023-08-08T01:28:06;13.50;99.90
52187;DHT22;38161;53.020;6.598;2023-08-08T01:30:32;13.50;99.90
52187;DHT22;38161;53.020;6.598;2023-08-08T01:32:58;13.50;99.90
52187;DHT22;38161;53.020;6.598;2023-08-08T01:35:27;13.50;99.90
52187;DHT22;38161;53.020;6.598;2023-08-08T01:38:04;13.50;99.90
52187;DHT22;38161;53.020;6.598;2023-08-08T01:40:35;13.40;99.90
52187;DHT22;38161;53.020;6.598;2023-08-08T01:43:03;13.40;99.90
52187;DHT22;38161;53.020;6.598;2023-08-08T01:45:29;13.50;99.90
52187;DHT22;38161;53.020;6.598;2023-08-08T01:47:55;13.50;99.90
52187;DHT22;38161;53.020;6.598;2023-08-08T01:50:21;13.40;99.90
52187;DHT22;38161;53.020;6.598;2023-08-08T01:52:47;13.40;99.90
52187;DHT22;38161;53.020;6.598;2023-08-08T01:55:13;13.40;99.90
52187;DHT22;38161;53.020;6.598;2023-08-08T01:57:39;13.40;99.90
52187;DHT22;38161;53.020;6.598;2023-08-08T02:00:06;13.40;99.90
52187;DHT22;38161;53.020;6.598;2023-08-08T02:02:32;13.40;99.90
52187;DHT22;38161;53.020;6.598;2023-08-08T02:04:58;13.40;99.90
52187;DHT22;38161;53.020;6.598;2023-08-08T02:07:23;13.40;99.90
52187;DHT22;38161;53.020;6.598;2023-08-08T02:09:49;13.40;99.90
52187;DHT22;38161;53.020;6.598;2023-08-08T02:12:16;13.40;99.90
52187;DHT22;38161;53.020;6.598;2023-08-08T02:14:42;13.40;99.90
52187;DHT22;38161;53.020;6.598;2023-08-08T02:17:08;13.40;99.90
52187;DHT22;38161;53.020;6.598;2023-08-08T02:19:34;13.50;99.90
52187;DHT22;38161;53.020;6.598;2023-08-08T02:22:00;13.40;99.90
52187;DHT22;38161;53.020;6.598;2023-08-08T02:24:26;13.40;99.90
52187;DHT22;38161;53.020;6.598;2023-08-08T02:26:52;13.40;99.90
52187;DHT22;38161;53.020;6.598;2023-08-08T02:29:18;13.50;99.90
52187;DHT22;38161;53.020;6.598;2023-08-08T02:31:44;13.40;99.90
52187;DHT22;38161;53.020;6.598;2023-08-08T02:34:09;13.40;99.90
52187;DHT22;38161;53.020;6.598;2023-08-08T02:36:35;13.40;99.90
52187;DHT22;38161;53.020;6.598;2023-08-08T02:39:01;13.40;99.90
52187;DHT22;38161;53.020;6.598;2023-08-08T02:41:27;13.50;99.90
52187;DHT22;38161;53.020;6.598;2023-08-08T02:43:53;13.50;99.90
52187;DHT22;38161;53.020;6.598;2023-08-08T02:46:18;13.40;99.90
52187;DHT22;38161;53.020;6.598;2023-08-08T02:48:44;13.50;99.90
52187;DHT22;38161;53.020;6.598;2023-08-08T02:51:10;13.40;99.90
52187;DHT22;38161;53.020;6.598;2023-08-08T02:53:36;13.40;99.90
52187;DHT22;38161;53.020;6.598;2023-08-08T02:56:02;13.40;99.90
52187;DHT22;38161;53.020;6.598;2023-08-08T02:58:27;13.50;99.90
52187;DHT22;38161;53.020;6.598;2023-08-08T03:00:53;13.50;99.90
52187;DHT22;38161;53.020;6.598;2023-08-08T03:03:19;13.40;99.90
52187;DHT22;38161;53.020;6.598;2023-08-08T03:05:45;13.50;99.90
52187;DHT22;38161;53.020;6.598;2023-08-08T03:08:11;13.50;99.90
52187;DHT22;38161;53.020;6.598;2023-08-08T03:10:37;13.40;99.90
52187;DHT22;38161;53.020;6.598;2023-08-08T03:13:03;13.40;99.90
52187;DHT22;38161;53.020;6.598;2023-08-08T03:15:29;13.40;99.90
52187;DHT22;38161;53.020;6.598;2023-08-08T03:17:54;13.40;99.90
52187;DHT22;38161;53.020;6.598;2023-08-08T03:20:21;13.50;99.90
52187;DHT22;38161;53.020;6.598;2023-08-08T03:22:47;13.40;99.90
52187;DHT22;38161;53.020;6.598;2023-08-08T03:25:15;13.40;99.90
52187;DHT22;38161;53.020;6.598;2023-08-08T03:27:42;13.40;99.90
52187;DHT22;38161;53.020;6.598;2023-08-08T03:30:08;13.40;99.90
52187;DHT22;38161;53.020;6.598;2023-08-08T03:32:34;13.40;99.90
52187;DHT22;38161;53.020;6.598;2023-08-08T03:35:00;13.50;99.90
52187;DHT22;38161;53.020;6.598;2023-08-08T03:37:26;13.50;99.90
52187;DHT22;38161;53.020;6.598;2023-08-08T03:39:52;13.50;99.90
52187;DHT22;38161;53.020;6.598;2023-08-08T03:42:18;13.50;99.90
52187;DHT22;38161;53.020;6.598;2023-08-08T03:44:44;13.50;99.90
52187;DHT22;38161;53.020;6.598;2023-08-08T03:47:10;13.50;99.90
52187;DHT22;38161;53.020;6.598;2023-08-08T03:49:36;13.40;99.90
52187;DHT22;38161;53.020;6.598;2023-08-08T03:52:02;13.40;99.90
52187;DHT22;38161;53.020;6.598;2023-08-08T03:54:28;13.40;99.90
52187;DHT22;38161;53.020;6.598;2023-08-08T03:56:54;13.40;99.90
52187;DHT22;38161;53.020;6.598;2023-08-08T03:59:20;13.40;99.90
52187;DHT22;38161;53.020;6.598;2023-08-08T04:01:46;13.40;99.90
52187;DHT22;38161;53.020;6.598;2023-08-08T04:04:11;13.40;99.90
52187;DHT22;38161;53.020;6.598;2023-08-08T04:06:37;13.40;99.90
52187;DHT22;38161;53.020;6.598;2023-08-08T04:09:03;13.40;99.90
52187;DHT22;38161;53.020;6.598;2023-08-08T04:11:29;13.40;99.90
52187;DHT22;38161;53.020;6.598;2023-08-08T04:13:55;13.40;99.90
52187;DHT22;38161;53.020;6.598;2023-08-08T04:16:21;13.40;99.90
52187;DHT22;38161;53.020;6.598;2023-08-08T04:18:46;13.30;99.90
52187;DHT22;38161;53.020;6.598;2023-08-08T04:21:12;13.30;99.90
52187;DHT22;38161;53.020;6.598;2023-08-08T04:23:38;13.30;99.90
52187;DHT22;38161;53.020;6.598;2023-08-08T04:26:04;13.30;99.90
52187;DHT22;38161;53.020;6.598;2023-08-08T04:28:30;13.30;99.90
52187;DHT22;38161;53.020;6.598;2023-08-08T04:30:56;13.30;99.90
52187;DHT22;38161;53.020;6.598;2023-08-08T04:33:22;13.30;99.90
52187;DHT22;38161;53.020;6.598;2023-08-08T04:35:47;13.30;99.90
52187;DHT22;38161;53.020;6.598;2023-08-08T04:38:14;13.30;99.90
52187;DHT22;38161;53.020;6.598;2023-08-08T04:40:43;13.30;99.90
52187;DHT22;38161;53.020;6.598;2023-08-08T04:43:09;13.30;99.90
52187;DHT22;38161;53.020;6.598;2023-08-08T04:45:34;13.30;99.90
52187;DHT22;38161;53.020;6.598;2023-08-08T04:48:00;13.30;99.90
52187;DHT22;38161;53.020;6.598;2023-08-08T04:50:26;13.20;99.90
52187;DHT22;38161;53.020;6.598;2023-08-08T04:52:52;13.20;99.90
52187;DHT22;38161;53.020;6.598;2023-08-08T04:55:18;13.20;99.90
52187;DHT22;38161;53.020;6.598;2023-08-08T04:57:44;13.20;99.90
52187;DHT22;38161;53.020;6.598;2023-08-08T05:00:11;13.20;99.90
52187;DHT22;38161;53.020;6.598;2023-08-08T05:02:37;13.20;99.90
52187;DHT22;38161;53.020;6.598;2023-08-08T05:05:05;13.20;99.90
52187;DHT22;38161;53.020;6.598;2023-08-08T05:07:31;13.20;99.90
52187;DHT22;38161;53.020;6.598;2023-08-08T05:09:57;13.20;99.90
52187;DHT22;38161;53.020;6.598;2023-08-08T05:12:22;13.20;99.90
52187;DHT22;38161;53.020;6.598;2023-08-08T05:14:48;13.20;99.90
52187;DHT22;38161;53.020;6.598;2023-08-08T05:17:14;13.20;99.90
52187;DHT22;38161;53.020;6.598;2023-08-08T05:19:40;13.20;99.90
52187;DHT22;38161;53.020;6.598;2023-08-08T05:22:06;13.20;99.90
52187;DHT22;38161;53.020;6.598;2023-08-08T05:24:32;13.30;99.90
52187;DHT22;38161;53.020;6.598;2023-08-08T05:26:57;13.30;99.90
52187;DHT22;38161;53.020;6.598;2023-08-08T05:29:23;13.30;99.90
52187;DHT22;38161;53.020;6.598;2023-08-08T05:31:49;13.30;99.90
52187;DHT22;38161;53.020;6.598;2023-08-08T05:34:15;13.40;99.90
52187;DHT22;38161;53.020;6.598;2023-08-08T05:36:41;13.40;99.90
52187;DHT22;38161;53.020;6.598;2023-08-08T05:39:07;13.50;99.90
52187;DHT22;38161;53.020;6.598;2023-08-08T05:41:33;13.60;99.90
52187;DHT22;38161;53.020;6.598;2023-08-08T05:43:59;13.60;99.90
52187;DHT22;38161;53.020;6.598;2023-08-08T05:46:25;13.70;99.90
52187;DHT22;38161;53.020;6.598;2023-08-08T05:48:50;13.70;99.90
52187;DHT22;38161;53.020;6.598;2023-08-08T05:51:16;13.80;99.90
52187;DHT22;38161;53.020;6.598;2023-08-08T05:53:42;13.90;99.90
52187;DHT22;38161;53.020;6.598;2023-08-08T05:56:08;13.90;99.90
52187;DHT22;38161;53.020;6.598;2023-08-08T05:58:34;14.00;99.90
52187;DHT22;38161;53.020;6.598;2023-08-08T06:01:03;14.00;99.90
52187;DHT22;38161;53.020;6.598;2023-08-08T06:03:32;14.10;99.90
52187;DHT22;38161;53.020;6.598;2023-08-08T06:05:57;14.10;99.90
52187;DHT22;38161;53.020;6.598;2023-08-08T06:08:23;14.20;99.90
52187;DHT22;38161;53.020;6.598;2023-08-08T06:10:49;14.30;99.90
52187;DHT22;38161;53.020;6.598;2023-08-08T06:13:15;14.30;99.90
52187;DHT22;38161;53.020;6.598;2023-08-08T06:15:41;14.40;99.90
52187;DHT22;38161;53.020;6.598;2023-08-08T06:18:07;14.50;99.90
52187;DHT22;38161;53.020;6.598;2023-08-08T06:20:32;14.50;99.90
52187;DHT22;38161;53.020;6.598;2023-08-08T06:22:58;14.60;99.90
52187;DHT22;38161;53.020;6.598;2023-08-08T06:25:24;14.70;99.90
52187;DHT22;38161;53.020;6.598;2023-08-08T06:27:50;14.70;99.90
52187;DHT22;38161;53.020;6.598;2023-08-08T06:30:16;14.80;99.90
52187;DHT22;38161;53.020;6.598;2023-08-08T06:32:42;14.80;99.90
52187;DHT22;38161;53.020;6.598;2023-08-08T06:35:08;14.90;99.90
52187;DHT22;38161;53.020;6.598;2023-08-08T06:37:34;14.90;99.90
52187;DHT22;38161;53.020;6.598;2023-08-08T06:40:00;15.00;99.90
52187;DHT22;38161;53.020;6.598;2023-08-08T06:42:26;15.10;99.90
52187;DHT22;38161;53.020;6.598;2023-08-08T06:44:52;15.10;99.90
52187;DHT22;38161;53.020;6.598;2023-08-08T06:47:18;15.20;99.90
52187;DHT22;38161;53.020;6.598;2023-08-08T06:49:44;15.20;99.90
52187;DHT22;38161;53.020;6.598;2023-08-08T06:52:09;15.30;99.90
52187;DHT22;38161;53.020;6.598;2023-08-08T06:54:35;15.30;99.90
52187;DHT22;38161;53.020;6.598;2023-08-08T06:57:01;15.40;99.90
52187;DHT22;38161;53.020;6.598;2023-08-08T06:59:28;15.40;99.90
52187;DHT22;38161;53.020;6.598;2023-08-08T07:01:54;15.50;99.90
52187;DHT22;38161;53.020;6.598;2023-08-08T07:04:22;15.60;99.90
52187;DHT22;38161;53.020;6.598;2023-08-08T07:06:48;15.60;99.90
52187;DHT22;38161;53.020;6.598;2023-08-08T07:09:14;15.70;99.90
52187;DHT22;38161;53.020;6.598;2023-08-08T07:11:40;15.80;99.90
52187;DHT22;38161;53.020;6.598;2023-08-08T07:14:06;15.80;99.90
52187;DHT22;38161;53.020;6.598;2023-08-08T07:16:32;15.80;99.90
52187;DHT22;38161;53.020;6.598;2023-08-08T07:18:58;15.90;99.90
52187;DHT22;38161;53.020;6.598;2023-08-08T07:21:24;15.90;99.90
52187;DHT22;38161;53.020;6.598;2023-08-08T07:23:50;16.00;99.90
52187;DHT22;38161;53.020;6.598;2023-08-08T07:26:16;16.00;99.90
52187;DHT22;38161;53.020;6.598;2023-08-08T07:28:42;16.10;99.90
52187;DHT22;38161;53.020;6.598;2023-08-08T07:31:08;16.20;99.90
52187;DHT22;38161;53.020;6.598;2023-08-08T07:33:33;16.30;99.90
52187;DHT22;38161;53.020;6.598;2023-08-08T07:35:59;16.30;99.90
52187;DHT22;38161;53.020;6.598;2023-08-08T07:38:25;16.30;99.90
52187;DHT22;38161;53.020;6.598;2023-08-08T07:40:51;16.30;99.90
52187;DHT22;38161;53.020;6.598;2023-08-08T07:43:17;16.20;99.90
52187;DHT22;38161;53.020;6.598;2023-08-08T07:45:42;16.20;99.90
52187;DHT22;38161;53.020;6.598;2023-08-08T07:48:08;16.20;99.90
52187;DHT22;38161;53.020;6.598;2023-08-08T07:50:34;16.20;99.90
52187;DHT22;38161;53.020;6.598;2023-08-08T07:53:00;16.30;99.90
52187;DHT22;38161;53.020;6.598;2023-08-08T07:55:26;16.30;99.90
52187;DHT22;38161;53.020;6.598;2023-08-08T07:57:52;16.30;99.90
52187;DHT22;38161;53.020;6.598;2023-08-08T08:00:18;16.30;99.90
52187;DHT22;38161;53.020;6.598;2023-08-08T08:02:45;16.30;99.90
52187;DHT22;38161;53.020;6.598;2023-08-08T08:05:12;16.40;99.90
52187;DHT22;38161;53.020;6.598;2023-08-08T08:07:39;16.30;99.90
52187;DHT22;38161;53.020;6.598;2023-08-08T08:10:08;16.30;99.90
52187;DHT22;38161;53.020;6.598;2023-08-08T08:12:35;16.30;99.90
52187;DHT22;38161;53.020;6.598;2023-08-08T08:15:01;16.30;99.90
52187;DHT22;38161;53.020;6.598;2023-08-08T08:17:27;16.30;99.90
52187;DHT22;38161;53.020;6.598;2023-08-08T08:19:53;16.30;99.90
52187;DHT22;38161;53.020;6.598;2023-08-08T08:22:19;16.40;99.90
52187;DHT22;38161;53.020;6.598;2023-08-08T08:24:45;16.40;99.90
52187;DHT22;38161;53.020;6.598;2023-08-08T08:27:12;16.50;99.90
52187;DHT22;38161;53.020;6.598;2023-08-08T08:29:38;16.60;99.90
52187;DHT22;38161;53.020;6.598;2023-08-08T08:32:04;16.50;99.90
52187;DHT22;38161;53.020;6.598;2023-08-08T08:34:30;16.60;99.90
52187;DHT22;38161;53.020;6.598;2023-08-08T08:36:56;16.60;99.90
52187;DHT22;38161;53.020;6.598;2023-08-08T08:39:21;16.60;99.90
52187;DHT22;38161;53.020;6.598;2023-08-08T08:41:49;16.60;99.90
52187;DHT22;38161;53.020;6.598;2023-08-08T08:44:19;16.60;99.90
52187;DHT22;38161;53.020;6.598;2023-08-08T08:46:48;16.60;99.90
52187;DHT22;38161;53.020;6.598;2023-08-08T08:49:17;16.60;99.90
52187;DHT22;38161;53.020;6.598;2023-08-08T08:51:44;16.60;99.90
52187;DHT22;38161;53.020;6.598;2023-08-08T08:54:10;16.50;99.90
52187;DHT22;38161;53.020;6.598;2023-08-08T08:56:37;16.40;99.90
52187;DHT22;38161;53.020;6.598;2023-08-08T08:59:03;16.30;99.90
52187;DHT22;38161;53.020;6.598;2023-08-08T09:01:29;16.20;99.90
52187;DHT22;38161;53.020;6.598;2023-08-08T09:03:55;16.10;99.90
52187;DHT22;38161;53.020;6.598;2023-08-08T09:06:23;16.10;99.90
52187;DHT22;38161;53.020;6.598;2023-08-08T09:08:48;16.20;99.90
52187;DHT22;38161;53.020;6.598;2023-08-08T09:11:14;16.40;99.90
52187;DHT22;38161;53.020;6.598;2023-08-08T09:13:40;16.50;99.90
52187;DHT22;38161;53.020;6.598;2023-08-08T09:16:07;16.60;99.90
52187;DHT22;38161;53.020;6.598;2023-08-08T09:18:38;16.80;99.90
52187;DHT22;38161;53.020;6.598;2023-08-08T09:21:04;16.80;99.90
52187;DHT22;38161;53.020;6.598;2023-08-08T09:23:30;16.80;99.90
52187;DHT22;38161;53.020;6.598;2023-08-08T09:25:56;16.70;99.90
52187;DHT22;38161;53.020;6.598;2023-08-08T09:28:22;16.60;99.90
52187;DHT22;38161;53.020;6.598;2023-08-08T09:30:49;16.50;99.90
52187;DHT22;38161;53.020;6.598;2023-08-08T09:33:15;16.40;99.90
52187;DHT22;38161;53.020;6.598;2023-08-08T09:35:41;16.30;99.90
52187;DHT22;38161;53.020;6.598;2023-08-08T09:38:06;16.40;99.90
52187;DHT22;38161;53.020;6.598;2023-08-08T09:40:33;16.60;99.90
52187;DHT22;38161;53.020;6.598;2023-08-08T09:42:59;16.70;99.90
52187;DHT22;38161;53.020;6.598;2023-08-08T09:45:25;16.90;99.90
52187;DHT22;38161;53.020;6.598;2023-08-08T09:47:52;17.20;99.90
52187;DHT22;38161;53.020;6.598;2023-08-08T09:50:19;17.20;99.90
52187;DHT22;38161;53.020;6.598;2023-08-08T09:52:46;17.20;99.90
52187;DHT22;38161;53.020;6.598;2023-08-08T09:55:14;17.10;99.90
52187;DHT22;38161;53.020;6.598;2023-08-08T09:57:41;17.00;99.90
52187;DHT22;38161;53.020;6.598;2023-08-08T10:00:08;17.00;99.90
52187;DHT22;38161;53.020;6.598;2023-08-08T10:02:45;17.10;99.90
52187;DHT22;38161;53.020;6.598;2023-08-08T10:05:14;17.30;99.90
52187;DHT22;38161;53.020;6.598;2023-08-08T10:07:43;17.40;99.90
52187;DHT22;38161;53.020;6.598;2023-08-08T10:10:09;17.60;99.90
52187;DHT22;38161;53.020;6.598;2023-08-08T10:12:39;17.60;99.90
52187;DHT22;38161;53.020;6.598;2023-08-08T10:15:10;17.60;99.90
52187;DHT22;38161;53.020;6.598;2023-08-08T10:17:40;17.40;99.90
52187;DHT22;38161;53.020;6.598;2023-08-08T10:20:09;17.30;99.90
52187;DHT22;38161;53.020;6.598;2023-08-08T10:22:46;17.30;99.90
52187;DHT22;38161;53.020;6.598;2023-08-08T10:25:23;17.40;99.90
52187;DHT22;38161;53.020;6.598;2023-08-08T10:28:10;17.50;99.90
52187;DHT22;38161;53.020;6.598;2023-08-08T10:30:46;17.60;99.90
52187;DHT22;38161;53.020;6.598;2023-08-08T10:33:16;17.60;99.90
52187;DHT22;38161;53.020;6.598;2023-08-08T10:35:54;17.60;99.90
52187;DHT22;38161;53.020;6.598;2023-08-08T10:38:19;17.60;99.90
52187;DHT22;38161;53.020;6.598;2023-08-08T10:40:47;17.60;99.90
52187;DHT22;38161;53.020;6.598;2023-08-08T10:43:13;17.60;99.90
52187;DHT22;38161;53.020;6.598;2023-08-08T10:45:41;17.70;99.90
52187;DHT22;38161;53.020;6.598;2023-08-08T10:48:10;17.80;99.90
52187;DHT22;38161;53.020;6.598;2023-08-08T10:50:41;18.00;99.90
52187;DHT22;38161;53.020;6.598;2023-08-08T10:53:09;18.00;99.90
52187;DHT22;38161;53.020;6.598;2023-08-08T10:55:38;18.00;99.90
52187;DHT22;38161;53.020;6.598;2023-08-08T10:58:12;17.90;99.90
52187;DHT22;38161;53.020;6.598;2023-08-08T11:00:41;17.80;99.90
52187;DHT22;38161;53.020;6.598;2023-08-08T11:03:08;17.90;99.90
52187;DHT22;38161;53.020;6.598;2023-08-08T11:05:36;17.90;99.90
52187;DHT22;38161;53.020;6.598;2023-08-08T11:08:03;17.90;99.90
52187;DHT22;38161;53.020;6.598;2023-08-08T11:10:38;17.80;99.90
52187;DHT22;38161;53.020;6.598;2023-08-08T11:13:07;17.80;99.90
52187;DHT22;38161;53.020;6.598;2023-08-08T11:15:34;17.80;99.90
52187;DHT22;38161;53.020;6.598;2023-08-08T11:18:01;17.70;99.90
52187;DHT22;38161;53.020;6.598;2023-08-08T11:20:32;17.70;99.90
52187;DHT22;38161;53.020;6.598;2023-08-08T11:22:59;17.70;99.90
52187;DHT22;38161;53.020;6.598;2023-08-08T11:25:27;17.90;99.90
52187;DHT22;38161;53.020;6.598;2023-08-08T11:30:43;18.20;99.90
52187;DHT22;38161;53.020;6.598;2023-08-08T11:33:14;18.40;99.90
52187;DHT22;38161;53.020;6.598;2023-08-08T11:35:45;18.50;99.90
52187;DHT22;38161;53.020;6.598;2023-08-08T11:38:13;18.50;99.90
52187;DHT22;38161;53.020;6.598;2023-08-08T11:40:39;18.40;99.90
52187;DHT22;38161;53.020;6.598;2023-08-08T11:43:05;18.30;99.90
52187;DHT22;38161;53.020;6.598;2023-08-08T11:45:32;18.30;99.90
52187;DHT22;38161;53.020;6.598;2023-08-08T11:47:59;18.40;99.90
52187;DHT22;38161;53.020;6.598;2023-08-08T11:50:26;18.50;99.90
52187;DHT22;38161;53.020;6.598;2023-08-08T11:52:55;18.40;99.90
52187;DHT22;38161;53.020;6.598;2023-08-08T11:55:27;18.30;99.90
52187;DHT22;38161;53.020;6.598;2023-08-08T11:57:55;18.40;99.90
52187;DHT22;38161;53.020;6.598;2023-08-08T12:00:28;18.50;99.90
52187;DHT22;38161;53.020;6.598;2023-08-08T12:02:57;18.50;99.90
52187;DHT22;38161;53.020;6.598;2023-08-08T12:05:23;18.60;99.90
52187;DHT22;38161;53.020;6.598;2023-08-08T12:07:49;18.50;99.90
52187;DHT22;38161;53.020;6.598;2023-08-08T12:10:20;18.50;99.90
52187;DHT22;38161;53.020;6.598;2023-08-08T12:12:52;18.60;99.90
52187;DHT22;38161;53.020;6.598;2023-08-08T12:15:19;18.70;99.90
52187;DHT22;38161;53.020;6.598;2023-08-08T12:17:46;18.70;99.90
52187;DHT22;38161;53.020;6.598;2023-08-08T12:20:14;18.70;99.90
52187;DHT22;38161;53.020;6.598;2023-08-08T12:22:40;18.70;99.90
52187;DHT22;38161;53.020;6.598;2023-08-08T12:25:06;18.90;99.90
52187;DHT22;38161;53.020;6.598;2023-08-08T12:27:34;18.90;99.90
52187;DHT22;38161;53.020;6.598;2023-08-08T12:30:00;19.10;99.90
52187;DHT22;38161;53.020;6.598;2023-08-08T12:32:27;19.10;99.90
52187;DHT22;38161;53.020;6.598;2023-08-08T12:34:55;19.10;99.90
52187;DHT22;38161;53.020;6.598;2023-08-08T12:37:22;19.00;99.90
52187;DHT22;38161;53.020;6.598;2023-08-08T12:39:49;19.00;99.90
52187;DHT22;38161;53.020;6.598;2023-08-08T12:42:16;18.90;99.90
52187;DHT22;38161;53.020;6.598;2023-08-08T12:44:41;18.90;99.90
52187;DHT22;38161;53.020;6.598;2023-08-08T12:47:08;18.70;99.90
52187;DHT22;38161;53.020;6.598;2023-08-08T12:49:35;18.70;99.90
52187;DHT22;38161;53.020;6.598;2023-08-08T12:52:01;18.50;99.90
52187;DHT22;38161;53.020;6.598;2023-08-08T12:54:27;18.50;99.90
52187;DHT22;38161;53.020;6.598;2023-08-08T12:56:53;18.50;99.90
52187;DHT22;38161;53.020;6.598;2023-08-08T12:59:19;18.40;99.90
52187;DHT22;38161;53.020;6.598;2023-08-08T13:01:46;18.40;99.90
52187;DHT22;38161;53.020;6.598;2023-08-08T13:04:13;18.50;99.90
52187;DHT22;38161;53.020;6.598;2023-08-08T13:06:39;18.50;99.90
52187;DHT22;38161;53.020;6.598;2023-08-08T13:09:05;18.50;99.90
52187;DHT22;38161;53.020;6.598;2023-08-08T13:11:31;18.50;99.90
52187;DHT22;38161;53.020;6.598;2023-08-08T13:13:57;18.60;99.90
52187;DHT22;38161;53.020;6.598;2023-08-08T13:16:23;18.60;99.90
52187;DHT22;38161;53.020;6.598;2023-08-08T13:18:50;18.50;99.90
52187;DHT22;38161;53.020;6.598;2023-08-08T13:21:16;18.50;99.90
52187;DHT22;38161;53.020;6.598;2023-08-08T13:23:42;18.40;99.90
52187;DHT22;38161;53.020;6.598;2023-08-08T13:26:08;18.40;99.90
52187;DHT22;38161;53.020;6.598;2023-08-08T13:28:35;18.50;99.90
52187;DHT22;38161;53.020;6.598;2023-08-08T13:31:01;18.40;99.90
52187;DHT22;38161;53.020;6.598;2023-08-08T13:33:27;18.30;99.90
52187;DHT22;38161;53.020;6.598;2023-08-08T13:35:53;18.30;99.90
52187;DHT22;38161;53.020;6.598;2023-08-08T13:38:19;18.20;99.90
52187;DHT22;38161;53.020;6.598;2023-08-08T13:40:45;18.20;99.90
52187;DHT22;38161;53.020;6.598;2023-08-08T13:43:20;18.10;99.90
52187;DHT22;38161;53.020;6.598;2023-08-08T13:46:04;18.20;99.90
52187;DHT22;38161;53.020;6.598;2023-08-08T13:48:41;18.20;99.90
52187;DHT22;38161;53.020;6.598;2023-08-08T13:51:06;18.40;99.90
52187;DHT22;38161;53.020;6.598;2023-08-08T13:53:33;18.50;99.90
52187;DHT22;38161;53.020;6.598;2023-08-08T13:55:59;18.50;99.90
52187;DHT22;38161;53.020;6.598;2023-08-08T13:58:25;18.60;99.90
52187;DHT22;38161;53.020;6.598;2023-08-08T14:00:52;18.60;99.90
52187;DHT22;38161;53.020;6.598;2023-08-08T14:03:18;18.70;99.90
52187;DHT22;38161;53.020;6.598;2023-08-08T14:05:44;18.70;99.90
52187;DHT22;38161;53.020;6.598;2023-08-08T14:08:10;18.70;99.90
52187;DHT22;38161;53.020;6.598;2023-08-08T14:10:36;18.80;99.90
52187;DHT22;38161;53.020;6.598;2023-08-08T14:13:06;18.90;99.90
52187;DHT22;38161;53.020;6.598;2023-08-08T14:15:34;18.90;99.90
52187;DHT22;38161;53.020;6.598;2023-08-08T14:18:07;19.00;99.90
52187;DHT22;38161;53.020;6.598;2023-08-08T14:20:41;19.00;99.90
52187;DHT22;38161;53.020;6.598;2023-08-08T14:23:11;19.00;99.90
52187;DHT22;38161;53.020;6.598;2023-08-08T14:25:40;19.10;99.90
52187;DHT22;38161;53.020;6.598;2023-08-08T14:28:13;19.10;99.90
52187;DHT22;38161;53.020;6.598;2023-08-08T14:30:41;19.20;99.90
52187;DHT22;38161;53.020;6.598;2023-08-08T14:33:07;19.20;99.90
52187;DHT22;38161;53.020;6.598;2023-08-08T14:35:33;19.20;99.90
52187;DHT22;38161;53.020;6.598;2023-08-08T14:37:59;19.30;99.90
52187;DHT22;38161;53.020;6.598;2023-08-08T14:40:26;19.30;99.90
52187;DHT22;38161;53.020;6.598;2023-08-08T14:42:51;19.30;99.90
52187;DHT22;38161;53.020;6.598;2023-08-08T14:45:18;19.20;99.90
52187;DHT22;38161;53.020;6.598;2023-08-08T14:47:43;19.10;99.90
52187;DHT22;38161;53.020;6.598;2023-08-08T14:50:09;19.00;99.90
52187;DHT22;38161;53.020;6.598;2023-08-08T14:52:39;19.00;99.90
52187;DHT22;38161;53.020;6.598;2023-08-08T14:55:05;19.00;99.90
52187;DHT22;38161;53.020;6.598;2023-08-08T14:57:31;18.90;99.90
52187;DHT22;38161;53.020;6.598;2023-08-08T14:59:58;18.90;99.90
52187;DHT22;38161;53.020;6.598;2023-08-08T15:02:26;18.90;99.90
52187;DHT22;38161;53.020;6.598;2023-08-08T15:04:52;18.90;99.90
52187;DHT22;38161;53.020;6.598;2023-08-08T15:07:18;18.90;99.90
52187;DHT22;38161;53.020;6.598;2023-08-08T15:09:45;18.90;99.90
52187;DHT22;38161;53.020;6.598;2023-08-08T15:12:14;18.90;99.90
52187;DHT22;38161;53.020;6.598;2023-08-08T15:14:41;19.00;99.90
52187;DHT22;38161;53.020;6.598;2023-08-08T15:17:08;19.00;99.90
52187;DHT22;38161;53.020;6.598;2023-08-08T15:19:34;19.00;99.90
52187;DHT22;38161;53.020;6.598;2023-08-08T15:22:00;19.00;99.90
52187;DHT22;38161;53.020;6.598;2023-08-08T15:24:26;19.00;99.90
52187;DHT22;38161;53.020;6.598;2023-08-08T15:26:52;18.90;99.90
52187;DHT22;38161;53.020;6.598;2023-08-08T15:29:18;18.90;99.90
52187;DHT22;38161;53.020;6.598;2023-08-08T15:31:44;18.80;99.90
52187;DHT22;38161;53.020;6.598;2023-08-08T15:34:10;18.70;99.90